createdAt,value
2023-09-06T00:02:31.737Z,101047.59
2023-09-06T00:05:34.413Z,101039.75
2023-09-06T00:08:36.916Z,101048.28
2023-09-06T00:11:41.113Z,101036.03
2023-09-06T00:14:43.652Z,101038.75
2023-09-06T00:17:46.184Z,101039.25
2023-09-06T00:20:48.737Z,101036.34
2023-09-06T00:23:51.253Z,101038.25
2023-09-06T00:26:55.905Z,101046.97
2023-09-06T00:29:58.628Z,101046.94
2023-09-06T00:33:04.093Z,101039.53
2023-09-06T00:36:08.048Z,101039.97
2023-09-06T00:39:11.290Z,101033.31
2023-09-06T00:42:13.723Z,101034.38
2023-09-06T00:45:16.849Z,101042.88
2023-09-06T00:48:22.863Z,101033.78
2023-09-06T00:51:26.709Z,101043.31
2023-09-06T00:54:29.311Z,101044.13
2023-09-06T00:57:33.338Z,101041.25
2023-09-06T01:00:36.704Z,101039.19
2023-09-06T01:03:43.029Z,101034.25
2023-09-06T01:06:48.389Z,101040.06
2023-09-06T01:09:52.095Z,101028.91
2023-09-06T01:12:56.510Z,101033.91
2023-09-06T01:15:59.200Z,101040.09
2023-09-06T01:19:02.284Z,101037.81
2023-09-06T01:22:29.838Z,101043.19
2023-09-06T01:25:32.960Z,101049.00
2023-09-06T01:28:36.180Z,101052.53
2023-09-06T01:31:38.786Z,101048.63
2023-09-06T01:34:41.481Z,101047.00
2023-09-06T01:37:44.008Z,101045.13
2023-09-06T01:40:46.831Z,101048.44
2023-09-06T01:43:51.524Z,101053.81
2023-09-06T01:46:54.261Z,101045.56
2023-09-06T01:49:58.636Z,101059.38
2023-09-06T01:53:01.417Z,101053.59
2023-09-06T01:56:04.107Z,101044.31
2023-09-06T01:59:07.817Z,101043.88
2023-09-06T02:02:10.372Z,101044.09
2023-09-06T02:05:13.402Z,101046.81
2023-09-06T02:08:17.556Z,101047.22
2023-09-06T02:11:20.428Z,101057.34
2023-09-06T02:14:23.890Z,101052.19
2023-09-06T02:17:26.710Z,101049.72
2023-09-06T02:20:29.446Z,101043.28
2023-09-06T02:23:32.036Z,101045.38
2023-09-06T02:26:34.539Z,101044.53
2023-09-06T02:29:37.296Z,101044.72
2023-09-06T02:32:40.057Z,101040.13
2023-09-06T02:35:43.313Z,101038.81
2023-09-06T02:38:47.787Z,101047.47
2023-09-06T02:41:50.880Z,101044.50
2023-09-06T02:44:55.091Z,101037.06
2023-09-06T02:47:57.615Z,101038.28
2023-09-06T02:51:01.121Z,101040.16
2023-09-06T02:54:03.869Z,101041.38
2023-09-06T02:57:06.312Z,101040.81
2023-09-06T03:00:30.319Z,101047.28
2023-09-06T03:03:33.286Z,101042.97
2023-09-06T03:06:38.984Z,101033.28
2023-09-06T03:09:46.205Z,101040.56
2023-09-06T03:12:55.616Z,101035.41
2023-09-06T03:16:01.316Z,101041.19
2023-09-06T03:19:10.814Z,101047.63
2023-09-06T03:22:14.337Z,101047.41
2023-09-06T03:25:18.655Z,101044.13
2023-09-06T03:28:22.737Z,101054.03
2023-09-06T03:31:27.386Z,101051.56
2023-09-06T03:34:30.037Z,101054.44
2023-09-06T03:37:34.675Z,101053.84
2023-09-06T03:40:38.126Z,101052.19
2023-09-06T03:43:41.056Z,101043.28
2023-09-06T03:46:43.774Z,101050.53
2023-09-06T03:49:46.872Z,101056.50
2023-09-06T03:52:51.608Z,101052.19
2023-09-06T03:55:59.467Z,101053.41
2023-09-06T03:59:12.774Z,101057.78
2023-09-06T04:02:15.490Z,101058.16
2023-09-06T04:05:24.227Z,101059.19
2023-09-06T04:08:30.666Z,101058.78
2023-09-06T04:11:35.673Z,101056.72
2023-09-06T04:14:40.145Z,101066.22
2023-09-06T04:17:44.550Z,101071.16
2023-09-06T04:20:48.101Z,101062.91
2023-09-06T04:23:53.648Z,101071.78
2023-09-06T04:26:56.890Z,101076.09
2023-09-06T04:29:59.735Z,101083.56
2023-09-06T04:33:03.104Z,101082.34
2023-09-06T04:36:06.251Z,101090.19
2023-09-06T04:39:09.256Z,101088.94
2023-09-06T04:42:14.815Z,101085.66
2023-09-06T04:45:18.279Z,101091.47
2023-09-06T04:48:25.138Z,101088.16
2023-09-06T04:51:31.968Z,101089.19
2023-09-06T04:54:37.103Z,101091.47
2023-09-06T04:57:41.215Z,101100.75
2023-09-06T05:00:49.152Z,101098.66
2023-09-06T05:03:51.974Z,101100.94
2023-09-06T05:06:56.230Z,101111.47
2023-09-06T05:09:59.556Z,101108.59
2023-09-06T05:13:02.750Z,101108.34
2023-09-06T05:16:06.755Z,101104.44
2023-09-06T05:19:09.577Z,101111.13
2023-09-06T05:22:14.873Z,101102.88
2023-09-06T05:25:18.131Z,101098.97
2023-09-06T05:28:20.931Z,101103.38
2023-09-06T05:31:29.170Z,101105.38
2023-09-06T05:34:31.929Z,101107.72
2023-09-06T05:37:34.840Z,101104.72
2023-09-06T05:40:38.436Z,101105.03
2023-09-06T05:43:41.410Z,101104.88
2023-09-06T05:46:47.116Z,101102.72
2023-09-06T05:49:53.716Z,101107.03
2023-09-06T05:52:56.497Z,101116.72
2023-09-06T05:56:00.257Z,101118.97
2023-09-06T05:59:02.872Z,101121.13
2023-09-06T06:02:06.997Z,101117.13
2023-09-06T06:05:10.585Z,101109.03
2023-09-06T06:08:13.307Z,101111.81
2023-09-06T06:11:16.332Z,101121.31
2023-09-06T06:14:19.077Z,101115.97
2023-09-06T06:17:21.812Z,101117.00
2023-09-06T06:20:38.397Z,101117.16
2023-09-06T06:23:50.048Z,101115.66
2023-09-06T06:26:52.713Z,101119.78
2023-09-06T06:29:55.508Z,101123.19
2023-09-06T06:33:01.707Z,101119.09
2023-09-06T06:36:04.555Z,101118.50
2023-09-06T06:39:07.164Z,101126.09
2023-09-06T06:42:10.047Z,101124.56
2023-09-06T06:45:18.619Z,101134.81
2023-09-06T06:48:22.252Z,101128.69
2023-09-06T06:51:30.066Z,101123.38
2023-09-06T06:54:32.782Z,101137.66
2023-09-06T06:57:36.876Z,101129.81
2023-09-06T07:00:39.652Z,101131.31
2023-09-06T07:03:42.553Z,101134.81
2023-09-06T07:06:45.976Z,101128.28
2023-09-06T07:09:48.640Z,101129.59
2023-09-06T07:12:51.217Z,101139.03
2023-09-06T07:15:53.833Z,101127.63
2023-09-06T07:18:57.645Z,101134.88
2023-09-06T07:22:01.606Z,101122.00
2023-09-06T07:25:06.531Z,101122.66
2023-09-06T07:28:17.172Z,101122.69
2023-09-06T07:31:20.652Z,101121.75
2023-09-06T07:34:23.535Z,101128.69
2023-09-06T07:37:27.072Z,101122.50
2023-09-06T07:40:29.577Z,101130.72
2023-09-06T07:43:32.934Z,101127.38
2023-09-06T07:46:35.518Z,101135.72
2023-09-06T07:49:38.301Z,101134.72
2023-09-06T07:52:41.043Z,101127.34
2023-09-06T07:55:50.275Z,101130.88
2023-09-06T07:58:52.933Z,101136.06
2023-09-06T08:01:55.574Z,101135.44
2023-09-06T08:04:59.022Z,101129.59
2023-09-06T08:08:03.648Z,101141.97
2023-09-06T08:11:07.447Z,101140.00
2023-09-06T08:14:10.115Z,101140.78
2023-09-06T08:17:12.622Z,101135.22
2023-09-06T08:20:16.771Z,101137.75
2023-09-06T08:23:19.446Z,101142.97
2023-09-06T08:26:22.512Z,101135.06
2023-09-06T08:29:25.258Z,101132.44
2023-09-06T08:32:28.208Z,101127.81
2023-09-06T08:35:31.695Z,101126.81
2023-09-06T08:38:34.820Z,101119.00
2023-09-06T08:41:39.246Z,101124.25
2023-09-06T08:44:45.855Z,101123.72
2023-09-06T08:47:50.807Z,101126.16
2023-09-06T08:50:56.328Z,101119.66
2023-09-06T08:54:01.340Z,101116.69
2023-09-06T08:57:05.988Z,101112.13
2023-09-06T09:00:11.184Z,101110.78
2023-09-06T09:03:14.275Z,101108.91
2023-09-06T09:06:17.458Z,101114.72
2023-09-06T09:09:20.826Z,101108.69
2023-09-06T09:12:26.294Z,101116.63
2023-09-06T09:15:33.645Z,101103.50
2023-09-06T09:18:39.825Z,101110.59
2023-09-06T09:21:43.172Z,101107.34
2023-09-06T09:24:46.402Z,101107.34
2023-09-06T09:28:07.534Z,101106.53
2023-09-06T09:31:17.196Z,101103.81
2023-09-06T09:34:20.168Z,101101.63
2023-09-06T09:37:23.888Z,101096.66
2023-09-06T09:40:46.039Z,101089.53
2023-09-06T09:44:14.016Z,101088.97
2023-09-06T09:47:38.759Z,101075.84
2023-09-06T09:50:42.858Z,101074.16
2023-09-06T09:53:46.862Z,101082.09
2023-09-06T09:57:04.079Z,101085.34
2023-09-06T10:00:10.799Z,101085.09
2023-09-06T10:03:16.771Z,101085.34
2023-09-06T10:06:21.040Z,101087.25
2023-09-06T10:09:23.753Z,101075.38
2023-09-06T10:12:29.295Z,101075.63
2023-09-06T10:15:34.052Z,101076.34
2023-09-06T10:18:37.861Z,101073.53
2023-09-06T10:21:42.729Z,101072.72
2023-09-06T10:24:53.291Z,101068.59
2023-09-06T10:27:58.039Z,101066.97
2023-09-06T10:31:10.778Z,101060.88
2023-09-06T10:34:14.930Z,101061.56
2023-09-06T10:37:17.809Z,101062.41
2023-09-06T10:40:21.503Z,101056.88
2023-09-06T10:43:43.966Z,101056.19
2023-09-06T10:46:46.844Z,101054.72
2023-09-06T10:50:08.610Z,101053.44
2023-09-06T10:53:19.096Z,101057.28
2023-09-06T10:56:31.148Z,101051.44
2023-09-06T10:59:47.170Z,101043.06
2023-09-06T11:03:08.802Z,101039.66
2023-09-06T11:06:11.745Z,101040.44
2023-09-06T11:09:14.535Z,101040.09
2023-09-06T11:12:18.585Z,101023.63
2023-09-06T11:15:21.600Z,101031.94
2023-09-06T11:18:24.621Z,101036.22
2023-09-06T11:21:27.877Z,101024.00
2023-09-06T11:24:37.727Z,101029.00
2023-09-06T11:27:40.603Z,101021.84
2023-09-06T11:30:45.845Z,101026.19
2023-09-06T11:33:57.332Z,101014.97
2023-09-06T11:37:04.845Z,101012.19
2023-09-06T11:40:16.605Z,101008.00
2023-09-06T11:43:24.367Z,101001.44
2023-09-06T11:46:28.653Z,101000.75
2023-09-06T11:49:35.160Z,101000.09
2023-09-06T11:52:51.294Z,100993.94
2023-09-06T11:56:00.922Z,100995.63
2023-09-06T11:59:08.282Z,100991.22
2023-09-06T12:02:14.562Z,100981.41
2023-09-06T12:05:18.029Z,100977.91
2023-09-06T12:08:23.751Z,100971.91
2023-09-06T12:11:28.803Z,100971.31
2023-09-06T12:14:32.803Z,100969.22
2023-09-06T12:17:35.971Z,100962.31
2023-09-06T12:20:38.868Z,100955.22
2023-09-06T12:23:42.423Z,100955.69
2023-09-06T12:26:45.404Z,100948.50
2023-09-06T12:29:48.055Z,100944.94
2023-09-06T12:32:50.864Z,100945.84
2023-09-06T12:36:00.126Z,100943.22
2023-09-06T12:39:07.636Z,100946.75
2023-09-06T12:42:10.530Z,100937.31
2023-09-06T12:45:27.353Z,100938.03
2023-09-06T12:48:31.778Z,100935.19
2023-09-06T12:51:35.495Z,100933.41
2023-09-06T12:54:38.019Z,100930.31
2023-09-06T12:57:41.015Z,100918.72
2023-09-06T13:00:43.694Z,100913.69
2023-09-06T13:03:47.078Z,100913.13
2023-09-06T13:06:50.089Z,100916.19
2023-09-06T13:09:52.750Z,100908.09
2023-09-06T13:12:55.658Z,100909.66
2023-09-06T13:15:58.450Z,100898.22
2023-09-06T13:19:01.405Z,100903.78
2023-09-06T13:22:04.996Z,100895.88
2023-09-06T13:25:09.259Z,100895.66
2023-09-06T13:28:12.015Z,100893.22
2023-09-06T13:31:15.114Z,100891.16
2023-09-06T13:34:18.425Z,100888.50
2023-09-06T13:37:21.048Z,100883.88
2023-09-06T13:40:23.665Z,100885.47
2023-09-06T13:43:26.580Z,100879.47
2023-09-06T13:46:29.404Z,100879.69
2023-09-06T13:49:32.309Z,100868.16
2023-09-06T13:52:35.549Z,100869.03
2023-09-06T13:55:38.365Z,100877.94
2023-09-06T13:58:41.118Z,100873.41
2023-09-06T14:01:44.289Z,100867.50
2023-09-06T14:04:48.784Z,100872.47
2023-09-06T14:07:51.633Z,100866.72
2023-09-06T14:10:55.372Z,100865.50
2023-09-06T14:13:58.359Z,100863.22
2023-09-06T14:17:20.965Z,100859.97
2023-09-06T14:20:44.160Z,100852.13
2023-09-06T14:23:47.980Z,100850.03
2023-09-06T14:27:06.358Z,100847.66
2023-09-06T14:30:10.004Z,100848.34
2023-09-06T14:33:16.167Z,100848.34
2023-09-06T14:36:18.823Z,100845.19
2023-09-06T14:39:21.392Z,100848.88
2023-09-06T14:42:24.111Z,100836.84
2023-09-06T14:45:28.610Z,100837.84
2023-09-06T14:48:32.959Z,100837.16
2023-09-06T14:51:35.919Z,100835.47
2023-09-06T14:54:38.536Z,100830.91
2023-09-06T14:57:41.188Z,100830.19
2023-09-06T15:00:43.905Z,100832.13
2023-09-06T15:03:46.756Z,100834.03
2023-09-06T15:06:59.390Z,100829.47
2023-09-06T15:10:04.463Z,100822.63
2023-09-06T15:13:09.181Z,100831.03
2023-09-06T15:16:12.943Z,100832.19
2023-09-06T15:19:15.601Z,100826.47
2023-09-06T15:22:33.013Z,100840.97
2023-09-06T15:25:41.288Z,100838.78
2023-09-06T15:28:43.863Z,100828.06
2023-09-06T15:31:47.169Z,100828.81
2023-09-06T15:34:50.601Z,100836.56
2023-09-06T15:38:04.965Z,100824.69
2023-09-06T15:41:12.812Z,100832.34
2023-09-06T15:44:15.576Z,100831.19
2023-09-06T15:47:20.675Z,100829.25
2023-09-06T15:50:26.295Z,100829.88
2023-09-06T15:53:31.425Z,100835.16
2023-09-06T15:56:34.012Z,100836.81
2023-09-06T15:59:36.786Z,100838.19
2023-09-06T16:02:41.019Z,100839.25
2023-09-06T16:05:44.731Z,100836.03
2023-09-06T16:08:47.420Z,100829.44
2023-09-06T16:11:56.150Z,100841.88
2023-09-06T16:14:59.638Z,100837.91
2023-09-06T16:18:02.701Z,100833.63
2023-09-06T16:21:08.420Z,100839.47
2023-09-06T16:24:11.787Z,100837.31
2023-09-06T16:27:14.397Z,100844.97
2023-09-06T16:30:18.909Z,100846.09
2023-09-06T16:33:22.017Z,100854.34
2023-09-06T16:36:26.016Z,100852.38
2023-09-06T16:39:30.623Z,100854.31
2023-09-06T16:42:33.505Z,100858.78
2023-09-06T16:45:36.269Z,100853.06
2023-09-06T16:48:38.798Z,100855.81
2023-09-06T16:51:41.297Z,100858.31
2023-09-06T16:54:43.930Z,100855.50
2023-09-06T16:57:46.653Z,100866.97
2023-09-06T17:00:50.093Z,100861.72
2023-09-06T17:03:52.691Z,100859.97
2023-09-06T17:06:55.178Z,100866.16
2023-09-06T17:09:57.669Z,100864.97
2023-09-06T17:13:01.954Z,100864.84
2023-09-06T17:16:05.676Z,100865.81
2023-09-06T17:19:10.591Z,100874.13
2023-09-06T17:22:13.694Z,100870.13
2023-09-06T17:25:17.275Z,100870.22
2023-09-06T17:28:19.797Z,100873.53
2023-09-06T17:31:22.389Z,100882.06
2023-09-06T17:34:24.890Z,100880.75
2023-09-06T17:37:27.988Z,100885.41
2023-09-06T17:40:30.565Z,100887.03
2023-09-06T17:43:33.200Z,100884.03
2023-09-06T17:46:37.198Z,100888.69
2023-09-06T17:49:39.767Z,100892.50
2023-09-06T17:52:42.365Z,100893.56
2023-09-06T17:55:46.284Z,100901.19
2023-09-06T17:58:50.941Z,100900.31
2023-09-06T18:01:53.748Z,100910.09
2023-09-06T18:04:56.475Z,100902.47
2023-09-06T18:08:01.076Z,100901.34
2023-09-06T18:11:10.546Z,100917.41
2023-09-06T18:14:13.755Z,100912.78
2023-09-06T18:17:17.256Z,100916.56
2023-09-06T18:20:20.216Z,100920.38
2023-09-06T18:23:23.144Z,100923.59
2023-09-06T18:26:25.765Z,100925.19
2023-09-06T18:29:28.327Z,100917.78
2023-09-06T18:32:32.757Z,100924.28
2023-09-06T18:35:35.412Z,100934.03
2023-09-06T18:38:39.101Z,100936.19
2023-09-06T18:41:44.604Z,100928.00
2023-09-06T18:44:47.107Z,100934.75
2023-09-06T18:47:51.670Z,100939.38
2023-09-06T18:50:54.303Z,100937.13
2023-09-06T18:53:57.157Z,100936.78
2023-09-06T18:56:59.700Z,100941.91
2023-09-06T19:00:04.245Z,100943.19
2023-09-06T19:03:09.597Z,100937.09
2023-09-06T19:06:12.461Z,100947.00
2023-09-06T19:09:16.871Z,100942.69
2023-09-06T19:12:19.626Z,100946.94
2023-09-06T19:15:23.390Z,100947.66
2023-09-06T19:18:26.297Z,100948.44
2023-09-06T19:21:28.954Z,100959.66
2023-09-06T19:24:31.421Z,100954.44
2023-09-06T19:27:34.863Z,100958.44
2023-09-06T19:30:37.756Z,100953.00
2023-09-06T19:33:40.416Z,100956.81
2023-09-06T19:36:42.851Z,100959.44
2023-09-06T19:39:46.804Z,100963.25
2023-09-06T19:42:52.824Z,100973.28
2023-09-06T19:46:01.639Z,100964.88
2023-09-06T19:49:06.900Z,100965.38
2023-09-06T19:52:09.568Z,100968.84
2023-09-06T19:55:12.069Z,100964.34
2023-09-06T19:58:15.064Z,100972.63
2023-09-06T20:01:17.849Z,100974.75
2023-09-06T20:04:21.238Z,100984.50
2023-09-06T20:07:24.039Z,100983.47
2023-09-06T20:10:26.523Z,100980.59
2023-09-06T20:13:29.236Z,100989.53
2023-09-06T20:16:31.971Z,100986.44
2023-09-06T20:19:34.605Z,100990.25
2023-09-06T20:22:37.091Z,100989.16
2023-09-06T20:25:39.680Z,100982.94
2023-09-06T20:28:42.254Z,100989.50
2023-09-06T20:31:44.792Z,100979.66
2023-09-06T20:34:47.252Z,100987.78
2023-09-06T20:37:49.736Z,100985.63
2023-09-06T20:41:05.755Z,100988.25
2023-09-06T20:44:08.548Z,100983.63
2023-09-06T20:47:11.067Z,100994.59
2023-09-06T20:50:19.444Z,100995.56
2023-09-06T20:53:26.351Z,100992.44
2023-09-06T20:56:28.932Z,100996.13
2023-09-06T20:59:31.542Z,100996.75
2023-09-06T21:02:34.660Z,100998.41
2023-09-06T21:05:37.916Z,100999.81
2023-09-06T21:08:40.730Z,101006.28
2023-09-06T21:11:43.391Z,100999.97
2023-09-06T21:14:45.989Z,101003.25
2023-09-06T21:17:48.744Z,101003.84
2023-09-06T21:20:51.441Z,100996.94
2023-09-06T21:23:54.103Z,100995.25
2023-09-06T21:26:56.721Z,101005.16
2023-09-06T21:29:59.347Z,101007.97
2023-09-06T21:33:01.919Z,101001.06
2023-09-06T21:36:04.671Z,101010.34
2023-09-06T21:39:07.458Z,101010.22
2023-09-06T21:42:10.087Z,101009.47
2023-09-06T21:45:13.098Z,101012.50
2023-09-06T21:48:15.880Z,101016.28
2023-09-06T21:51:19.208Z,101014.03
2023-09-06T21:54:21.828Z,101015.66
2023-09-06T21:57:24.452Z,101011.19
2023-09-06T22:00:30.026Z,101011.03
2023-09-06T22:03:51.173Z,101010.53
2023-09-06T22:07:12.534Z,101006.66
2023-09-06T22:10:33.678Z,100999.72
2023-09-06T22:13:54.446Z,100996.41
2023-09-06T22:16:57.044Z,101002.50
2023-09-06T22:20:00.251Z,101005.19
2023-09-06T22:23:02.891Z,101004.13
2023-09-06T22:26:09.725Z,101013.34
2023-09-06T22:29:12.507Z,101008.63
2023-09-06T22:32:15.113Z,101017.28
2023-09-06T22:35:17.767Z,101022.28
2023-09-06T22:38:20.283Z,101028.34
2023-09-06T22:41:22.860Z,101025.25
2023-09-06T22:44:25.499Z,101026.09
2023-09-06T22:47:28.025Z,101030.94
2023-09-06T22:50:30.658Z,101025.44
2023-09-06T22:53:33.217Z,101016.88
2023-09-06T22:56:38.331Z,101023.53
2023-09-06T22:59:40.864Z,101022.56
2023-09-06T23:02:43.765Z,101019.94
2023-09-06T23:05:46.329Z,101030.97
2023-09-06T23:08:49.455Z,101022.13
2023-09-06T23:11:53.372Z,101013.34
2023-09-06T23:14:55.830Z,101018.59
2023-09-06T23:17:58.330Z,101023.66
2023-09-06T23:21:07.706Z,101017.91
2023-09-06T23:24:13.274Z,101021.06
2023-09-06T23:27:19.220Z,101023.59
2023-09-06T23:30:23.119Z,101020.66
2023-09-06T23:33:41.196Z,101016.69
2023-09-06T23:36:43.726Z,101015.88
2023-09-06T23:39:48.765Z,101013.09
2023-09-06T23:42:54.759Z,101014.22
2023-09-06T23:45:57.605Z,101016.84
2023-09-06T23:49:00.788Z,101013.53
2023-09-06T23:52:03.713Z,101017.72
2023-09-06T23:55:07.419Z,101022.50
2023-09-06T23:58:10.126Z,101021.16
